Time;durP1;ratioP1;P1;durP2;ratioP2;P2;SDS_P1;SDS_P2;PMS_P1;PMS_P2;Temp;Humidity;BMP_temperature;BMP_pressure;BME280_temperature;BME280_humidity;BME280_pressure;Samples;Min_cycle;Max_cycle;Signal;HPM_P1;HPM_P2
2022/05/14 00:00:35;;;;;;;5.20;3.90;;;;;;;22.25;46.26;100537.13;104661;1306;60484;-83
2022/05/14 00:03:03;;;;;;;5.80;4.00;;;;;;;22.25;46.40;100540.02;104572;1306;60506;-85
2022/05/14 00:05:34;;;;;;;5.40;4.00;;;;;;;22.26;46.15;100540.35;104634;1306;74220;-85
2022/05/14 00:08:00;;;;;;;6.20;4.10;;;;;;;22.26;46.30;100537.48;104569;1306;60595;-88
2022/05/14 00:10:32;;;;;;;6.20;4.10;;;;;;;22.26;46.37;100545.53;104661;1306;61382;-83
2022/05/14 00:13:06;;;;;;;5.20;3.50;;;;;;;22.25;46.27;100543.95;104566;1306;72882;-85
2022/05/14 00:15:38;;;;;;;5.30;3.80;;;;;;;22.26;46.41;100540.13;104507;1306;74442;-84
2022/05/14 00:18:07;;;;;;;5.30;3.70;;;;;;;22.25;46.47;100538.77;104600;1306;60552;-82
2022/05/14 00:20:33;;;;;;;;;;;;;;;22.25;46.46;100533.56;104604;1306;61674;-85
2022/05/14 00:22:59;;;;;;;6.70;3.70;;;;;;;22.23;46.49;100533.08;104653;1306;60479;-85
2022/05/14 00:25:25;;;;;;;6.70;3.70;;;;;;;22.24;46.46;100532.23;104641;1306;60475;-85
2022/05/14 00:27:56;;;;;;;5.70;3.50;;;;;;;22.24;46.31;100533.88;104540;1308;60433;-86
2022/05/14 00:30:26;;;;;;;5.80;3.50;;;;;;;22.24;46.38;100532.98;104661;1306;60520;-86
2022/05/14 00:32:55;;;;;;;6.30;3.80;;;;;;;22.24;46.40;100529.40;104661;1306;72778;-85
2022/05/14 00:35:26;;;;;;;5.50;3.70;;;;;;;22.24;46.59;100531.02;104521;1307;73922;-88
2022/05/14 00:37:54;;;;;;;5.90;3.70;;;;;;;22.24;46.57;100526.31;104509;1309;61449;-83
2022/05/14 00:40:24;;;;;;;6.50;3.80;;;;;;;22.24;46.55;100521.11;104462;1309;60603;-83
2022/05/14 00:42:50;;;;;;;5.40;3.80;;;;;;;22.23;46.56;100518.27;104582;1308;72861;-83
2022/05/14 00:45:21;;;;;;;6.00;3.70;;;;;;;22.24;46.44;100514.13;104467;1309;60464;-84
2022/05/14 00:47:49;;;;;;;5.80;3.70;;;;;;;22.24;46.47;100512.33;104622;1309;60402;-82
2022/05/14 00:50:18;;;;;;;5.50;3.90;;;;;;;22.24;46.52;100513.41;104495;1309;60726;-84
2022/05/14 00:52:44;;;;;;;4.90;3.40;;;;;;;22.24;46.59;100518.56;104573;1309;74203;-85
2022/05/14 00:55:19;;;;;;;7.30;3.80;;;;;;;22.24;46.61;100518.60;104544;1308;74941;-84
2022/05/14 00:57:50;;;;;;;5.30;3.80;;;;;;;22.24;46.56;100516.42;104570;1309;61774;-84
2022/05/14 01:00:19;;;;;;;6.70;3.80;;;;;;;22.24;46.58;100512.48;104555;1308;60511;-83
2022/05/14 01:02:48;;;;;;;5.10;3.60;;;;;;;22.24;46.62;100508.89;104576;1306;72977;-84
2022/05/14 01:05:21;;;;;;;5.70;3.80;;;;;;;22.25;46.76;100505.48;104641;1306;73849;-83
2022/05/14 01:08:04;;;;;;;5.90;3.80;;;;;;;22.24;46.60;100499.43;104519;1309;60436;-85
2022/05/14 01:10:34;;;;;;;6.30;3.90;;;;;;;22.25;46.79;100505.30;104511;1306;60331;-85
2022/05/14 01:13:09;;;;;;;6.00;4.00;;;;;;;22.25;46.71;100509.24;104585;1306;73918;-83
2022/05/14 01:15:52;;;;;;;4.80;3.60;;;;;;;22.25;46.72;100517.84;104528;1308;74888;-83
2022/05/14 01:18:22;;;;;;;4.80;3.50;;;;;;;22.24;46.60;100515.34;104514;1309;61516;-84
2022/05/14 01:21:04;;;;;;;6.00;3.60;;;;;;;22.25;46.58;100516.59;104524;1309;60339;-83
2022/05/14 01:26:39;;;;;;;;;;;;;;;22.24;46.61;100513.63;104815;1306;75019;-85
2022/05/14 01:29:19;;;;;;;6.00;3.70;;;;;;;22.22;46.82;100512.31;104677;1306;59295;-87
2022/05/14 01:31:49;;;;;;;5.90;3.70;;;;;;;22.22;46.84;100512.09;104804;1306;60516;-82
2022/05/14 01:34:24;;;;;;;5.10;3.80;;;;;;;22.23;46.70;100513.52;104460;1309;74122;-84
2022/05/14 01:36:52;;;;;;;5.10;3.70;;;;;;;22.23;46.66;100508.67;104633;1308;73990;-83
2022/05/14 01:39:23;;;;;;;4.50;3.40;;;;;;;22.23;46.69;100502.59;104526;1306;60499;-84
2022/05/14 01:41:52;;;;;;;4.90;3.40;;;;;;;22.23;46.77;100507.77;104675;1306;60564;-85
2022/05/14 01:44:22;;;;;;;6.00;3.60;;;;;;;22.23;46.90;100501.84;104667;1306;73876;-84
2022/05/14 01:46:52;;;;;;;6.00;3.40;;;;;;;22.23;46.70;100492.18;104524;1306;74415;-81
2022/05/14 01:49:17;;;;;;;6.80;3.70;;;;;;;22.23;46.80;100480.02;104514;1309;60676;-86
2022/05/14 01:51:44;;;;;;;5.60;3.60;;;;;;;22.23;46.87;100473.36;104488;1309;60590;-83
2022/05/14 01:54:17;;;;;;;5.80;3.70;;;;;;;22.23;46.78;100474.23;104422;1308;73039;-86
2022/05/14 01:56:46;;;;;;;4.40;3.10;;;;;;;22.23;46.74;100471.38;104666;1306;73975;-85
2022/05/14 01:59:15;;;;;;;4.80;3.60;;;;;;;22.23;46.79;100473.87;104660;1306;60429;-85
2022/05/14 02:01:46;;;;;;;5.70;3.40;;;;;;;22.23;46.88;100474.77;104574;1306;60596;-86
2022/05/14 02:04:13;;;;;;;5.20;3.50;;;;;;;22.23;47.10;100482.11;104684;1306;73889;-84
2022/05/14 02:06:46;;;;;;;5.10;3.40;;;;;;;22.24;46.95;100476.70;104578;1306;75593;-87
2022/05/14 02:09:13;;;;;;;5.10;3.70;;;;;;;22.23;46.96;100472.84;104514;1309;60535;-84
2022/05/14 02:11:49;;;;;;;4.90;3.60;;;;;;;22.23;46.98;100473.88;104427;1309;60519;-84
2022/05/14 02:14:14;;;;;;;5.20;3.60;;;;;;;22.23;46.96;100475.46;104401;1309;74012;-85
2022/05/14 02:16:47;;;;;;;5.30;3.60;;;;;;;22.23;46.92;100470.66;104538;1306;74994;-84
2022/05/14 02:19:17;;;;;;;6.20;3.40;;;;;;;22.23;47.01;100471.92;104534;1309;60477;-84
2022/05/14 02:21:45;;;;;;;5.70;3.40;;;;;;;22.23;46.94;100470.66;104581;1309;61597;-84
2022/05/14 02:24:11;;;;;;;5.30;3.40;;;;;;;22.23;47.07;100472.40;104507;1309;73712;-83
2022/05/14 02:26:40;;;;;;;5.20;3.40;;;;;;;22.23;47.00;100474.21;104658;1309;60465;-86
2022/05/14 02:29:08;;;;;;;5.20;3.30;;;;;;;22.23;47.04;100469.40;104665;1306;60475;-84
2022/05/14 02:31:37;;;;;;;5.10;3.70;;;;;;;22.23;47.00;100471.38;104660;1306;60543;-84
2022/05/14 02:34:05;;;;;;;4.60;3.40;;;;;;;22.23;47.05;100475.67;104681;1307;73023;-84
2022/05/14 02:36:35;;;;;;;5.10;3.50;;;;;;;22.23;47.18;100470.66;104558;1306;74119;-85
2022/05/14 02:39:16;;;;;;;5.30;3.40;;;;;;;22.23;47.01;100471.04;104679;1306;61221;-84
2022/05/14 02:41:41;;;;;;;5.90;4.00;;;;;;;22.23;47.11;100468.83;104545;1306;60335;-87
2022/05/14 02:44:07;;;;;;;4.40;3.30;;;;;;;22.23;47.19;100484.29;104567;1306;60978;-86
2022/05/14 02:46:42;;;;;;;4.80;3.30;;;;;;;22.23;47.05;100498.27;104493;1309;60481;-86
2022/05/14 02:49:08;;;;;;;5.40;3.40;;;;;;;22.23;47.16;100501.66;104584;1306;60716;-85
2022/05/14 02:51:36;;;;;;;4.70;3.30;;;;;;;22.23;47.23;100496.28;104529;1309;60396;-85
2022/05/14 02:54:05;;;;;;;4.80;3.10;;;;;;;22.23;47.15;100492.38;104502;1309;72795;-83
2022/05/14 02:56:42;;;;;;;4.90;3.60;;;;;;;22.23;47.24;100494.84;104498;1309;74115;-84
2022/05/14 02:59:08;;;;;;;6.40;3.50;;;;;;;22.23;47.29;100501.13;104686;1305;60538;-84
2022/05/14 03:01:47;;;;;;;6.30;3.60;;;;;;;22.23;47.29;100504.34;104651;1306;60560;-83
2022/05/14 03:04:19;;;;;;;4.50;3.20;;;;;;;22.23;47.23;100507.39;104394;1309;72297;-83
2022/05/14 03:06:48;;;;;;;5.10;3.30;;;;;;;22.23;47.23;100506.47;104664;1306;74066;-84
2022/05/14 03:09:17;;;;;;;5.10;3.50;;;;;;;22.24;47.26;100507.87;104686;1306;60324;-85
2022/05/14 03:11:49;;;;;;;4.10;3.30;;;;;;;22.23;47.28;100513.83;104532;1309;61908;-87
2022/05/14 03:14:17;;;;;;;4.40;3.00;;;;;;;22.23;47.44;100513.48;104482;1309;73012;-83
2022/05/14 03:16:54;;;;;;;5.70;3.40;;;;;;;22.23;47.26;100520.83;104699;1306;74036;-83
2022/05/14 03:19:19;;;;;;;5.40;3.10;;;;;;;22.23;47.37;100522.08;104681;1306;60433;-84
2022/05/14 03:21:54;;;;;;;6.30;3.20;;;;;;;22.23;47.15;100518.84;104545;1306;60825;-85
2022/05/14 03:24:29;;;;;;;4.60;3.30;;;;;;;22.24;47.26;100522.92;104661;1306;74165;-85
2022/05/14 03:27:04;;;;;;;5.50;3.90;;;;;;;22.23;47.28;100523.70;104652;1306;74879;-85
2022/05/14 03:29:37;;;;;;;4.80;3.30;;;;;;;22.24;47.44;100519.86;104697;1306;61534;-83
2022/05/14 03:32:05;;;;;;;5.20;3.10;;;;;;;22.24;47.32;100524.89;104812;1305;60394;-84
2022/05/14 03:34:37;;;;;;;4.60;3.30;;;;;;;22.24;47.33;100526.15;104664;1306;72838;-84
2022/05/14 03:37:13;;;;;;;5.10;3.40;;;;;;;22.24;47.49;100528.09;104565;1306;74428;-84
2022/05/14 03:39:42;;;;;;;4.60;3.20;;;;;;;22.24;47.43;100532.75;104678;1306;60755;-84
2022/05/14 03:42:10;;;;;;;5.60;3.40;;;;;;;22.24;47.40;100534.52;104440;1308;60405;-85
2022/05/14 03:44:39;;;;;;;4.50;3.30;;;;;;;22.25;47.50;100534.35;104546;1306;71593;-84
2022/05/14 03:47:05;;;;;;;4.60;3.20;;;;;;;22.25;47.35;100538.81;104662;1306;75014;-87
2022/05/14 03:49:30;;;;;;;5.80;3.20;;;;;;;22.25;47.37;100546.89;104586;1306;60555;-84
2022/05/14 03:51:56;;;;;;;5.60;3.40;;;;;;;22.25;47.42;100544.88;104607;1306;60661;-84
2022/05/14 03:54:24;;;;;;;5.60;3.00;;;;;;;22.25;47.45;100550.97;104669;1306;60977;-84
2022/05/14 03:56:56;;;;;;;4.80;3.30;;;;;;;22.25;47.58;100548.25;104496;1307;75202;-84
2022/05/14 03:59:34;;;;;;;4.80;2.90;;;;;;;22.25;47.39;100547.72;104510;1307;59429;-84
2022/05/14 04:02:03;;;;;;;4.30;3.20;;;;;;;22.26;47.51;100554.89;104562;1306;60516;-85
2022/05/14 04:04:30;;;;;;;4.70;3.40;;;;;;;22.26;47.59;100558.60;104519;1306;60690;-84
2022/05/14 04:06:58;;;;;;;4.50;3.20;;;;;;;22.26;47.51;100560.77;104560;1307;75008;-86
2022/05/14 04:09:29;;;;;;;4.30;2.80;;;;;;;22.26;47.56;100565.60;104552;1307;60330;-84
2022/05/14 04:11:55;;;;;;;5.00;3.10;;;;;;;22.26;47.61;100568.10;104640;1306;61615;-83
2022/05/14 04:14:22;;;;;;;6.60;3.60;;;;;;;22.26;47.55;100568.09;104544;1307;60548;-84
2022/05/14 04:16:49;;;;;;;6.80;3.20;;;;;;;22.26;47.64;100565.92;104623;1306;60493;-84
2022/05/14 04:19:21;;;;;;;5.00;3.30;;;;;;;22.27;47.67;100566.97;104679;1306;60860;-85
2022/05/14 04:21:59;;;;;;;4.80;3.30;;;;;;;22.28;47.55;100571.23;104657;1306;61490;-83
2022/05/14 04:24:28;;;;;;;5.20;3.20;;;;;;;22.27;47.62;100569.08;104518;1307;72869;-83
2022/05/14 04:26:54;;;;;;;4.80;3.60;;;;;;;22.28;47.57;100569.05;104655;1306;73965;-82
2022/05/14 04:29:22;;;;;;;4.30;2.80;;;;;;;22.28;47.84;100570.81;104649;1306;61656;-84
2022/05/14 04:31:48;;;;;;;4.60;3.10;;;;;;;22.30;47.62;100578.25;104545;1307;60621;-83
2022/05/14 04:34:14;;;;;;;4.50;3.10;;;;;;;22.29;47.74;100583.47;104620;1307;60563;-84
2022/05/14 04:36:40;;;;;;;5.00;3.10;;;;;;;22.30;47.56;100590.23;104840;1306;60456;-84
2022/05/14 04:39:15;;;;;;;5.40;3.00;;;;;;;22.30;47.62;100592.20;104657;1306;61361;-85
2022/05/14 04:41:42;;;;;;;5.30;3.30;;;;;;;22.31;47.71;100594.67;104659;1306;61667;-84
2022/05/14 04:44:07;;;;;;;4.60;3.20;;;;;;;22.31;47.61;100596.97;104635;1306;60576;-85
2022/05/14 04:46:34;;;;;;;4.80;3.10;;;;;;;22.32;47.74;100597.59;104564;1306;60618;-83
2022/05/14 04:49:04;;;;;;;4.60;3.20;;;;;;;22.32;47.70;100595.42;104661;1306;60389;-84
2022/05/14 04:51:37;;;;;;;4.40;3.10;;;;;;;22.32;47.71;100595.48;104859;1306;60487;-84
2022/05/14 04:54:05;;;;;;;5.00;3.10;;;;;;;22.32;47.71;100596.52;104711;1305;73714;-85
2022/05/14 04:56:31;;;;;;;4.90;3.20;;;;;;;22.32;47.72;100595.79;104872;1305;73954;-84
2022/05/14 04:58:57;;;;;;;5.10;3.30;;;;;;;22.33;47.88;100597.49;104642;1306;59407;-84
2022/05/14 05:01:29;;;;;;;4.30;3.00;;;;;;;22.34;47.73;100600.85;104556;1306;60484;-83
2022/05/14 05:04:03;;;;;;;5.20;3.10;;;;;;;22.34;47.78;100606.05;104886;1305;73920;-84
2022/05/14 05:06:29;;;;;;;4.40;3.20;;;;;;;22.35;47.74;100613.91;104661;1306;75015;-86
2022/05/14 05:09:00;;;;;;;4.50;3.10;;;;;;;22.35;47.80;100616.75;104750;1306;60458;-85
2022/05/14 05:11:29;;;;;;;4.60;3.00;;;;;;;22.36;47.71;100623.28;104629;1306;60502;-83
2022/05/14 05:13:58;;;;;;;4.90;3.10;;;;;;;22.37;47.78;100632.55;104574;1306;72929;-81
2022/05/14 05:16:27;;;;;;;6.20;3.40;;;;;;;22.38;47.76;100631.95;104889;1306;74031;-86
2022/05/14 05:19:09;;;;;;;4.90;3.10;;;;;;;22.38;47.81;100640.69;104606;1306;60342;-89
2022/05/14 05:21:35;;;;;;;5.00;3.50;;;;;;;22.39;47.79;100636.88;104681;1306;60825;-84
2022/05/14 05:24:07;;;;;;;5.70;3.00;;;;;;;22.40;47.84;100633.38;104575;1306;72888;-82
2022/05/14 05:26:33;;;;;;;4.50;3.20;;;;;;;22.40;47.77;100638.16;104657;1306;73951;-84
2022/05/14 05:29:02;;;;;;;5.30;3.30;;;;;;;22.41;47.76;100639.36;104885;1306;60577;-85
2022/05/14 05:31:31;;;;;;;4.90;3.20;;;;;;;22.41;47.70;100636.83;104748;1305;60686;-84
2022/05/14 05:34:05;;;;;;;6.00;3.10;;;;;;;22.42;47.75;100637.11;104859;1304;73766;-85
2022/05/14 05:36:36;;;;;;;4.90;3.30;;;;;;;22.43;47.72;100632.91;104680;1304;73477;-84
2022/05/14 05:39:04;;;;;;;4.50;3.20;;;;;;;22.44;47.82;100641.48;104657;1306;61573;-86
2022/05/14 05:41:30;;;;;;;4.20;3.00;;;;;;;22.45;47.80;100648.05;104652;1306;60424;-84
2022/05/14 05:44:00;;;;;;;6.00;2.80;;;;;;;22.46;47.77;100647.49;104568;1306;72142;-86
2022/05/14 05:46:29;;;;;;;4.50;3.40;;;;;;;22.46;47.83;100645.27;104652;1306;74576;-85
2022/05/14 05:48:58;;;;;;;5.20;3.20;;;;;;;22.47;47.84;100643.79;104663;1306;61231;-85
2022/05/14 05:51:32;;;;;;;4.40;3.20;;;;;;;22.47;47.92;100645.89;104563;1306;61437;-85
2022/05/14 05:56:56;;;;;;;4.40;3.30;;;;;;;22.49;47.78;100650.10;104706;1306;74729;-85
2022/05/14 05:59:33;;;;;;;5.50;3.30;;;;;;;22.49;47.90;100652.03;104625;1306;61567;-84
2022/05/14 06:02:08;;;;;;;4.30;3.40;;;;;;;22.50;47.81;100656.99;104726;1306;61162;-83
2022/05/14 06:04:38;;;;;;;5.20;3.50;;;;;;;22.51;47.92;100662.29;104711;1306;73837;-85
2022/05/14 06:07:04;;;;;;;5.40;3.30;;;;;;;22.51;47.90;100661.89;104646;1306;74088;-86
2022/05/14 06:09:30;;;;;;;4.70;3.20;;;;;;;22.52;47.88;100667.92;104719;1306;59274;-84
2022/05/14 06:11:58;;;;;;;4.30;3.20;;;;;;;22.53;47.99;100671.27;104659;1306;60250;-85
2022/05/14 06:14:29;;;;;;;6.20;3.40;;;;;;;22.53;48.02;100674.83;104575;1306;74279;-81
2022/05/14 06:17:02;;;;;;;4.20;3.00;;;;;;;22.55;47.94;100676.67;104728;1306;75814;-84
2022/05/14 06:19:28;;;;;;;5.00;3.10;;;;;;;22.55;47.89;100676.11;104718;1306;61320;-87
2022/05/14 06:21:54;;;;;;;4.90;3.30;;;;;;;22.55;47.86;100679.50;104652;1306;61319;-86
2022/05/14 06:24:20;;;;;;;5.60;3.40;;;;;;;22.56;47.97;100678.02;104581;1306;78568;-84
2022/05/14 06:26:49;;;;;;;4.80;3.40;;;;;;;22.56;47.95;100677.09;104648;1306;75021;-84
2022/05/14 06:29:15;;;;;;;5.00;3.30;;;;;;;22.56;47.81;100673.65;104654;1307;61294;-83
2022/05/14 06:31:48;;;;;;;4.20;3.40;;;;;;;22.57;47.97;100677.73;104566;1307;61575;-84
2022/05/14 06:34:16;;;;;;;5.00;3.20;;;;;;;22.58;48.04;100676.80;104487;1309;74662;-83
2022/05/14 06:36:50;;;;;;;5.50;3.40;;;;;;;22.57;48.10;100674.66;104682;1306;75146;-83
2022/05/14 06:39:24;;;;;;;5.30;3.30;;;;;;;22.58;48.04;100678.20;104602;1306;61346;-83
2022/05/14 06:41:49;;;;;;;5.50;3.70;;;;;;;22.58;48.05;100674.22;104890;1306;61668;-85
2022/05/14 06:44:15;;;;;;;5.50;3.10;;;;;;;22.59;48.02;100671.13;104560;1306;61343;-84
2022/05/14 06:46:43;;;;;;;4.60;3.20;;;;;;;22.59;48.05;100670.09;104643;1306;61281;-84
2022/05/14 06:49:18;;;;;;;4.80;3.20;;;;;;;22.60;48.09;100669.83;104650;1306;61475;-84
2022/05/14 06:51:46;;;;;;;4.50;3.20;;;;;;;22.60;48.07;100665.66;104486;1303;61256;-84
2022/05/14 06:54:17;;;;;;;5.70;3.50;;;;;;;22.60;48.15;100666.91;104488;1306;73169;-85
2022/05/14 06:56:48;;;;;;;4.30;3.10;;;;;;;22.61;48.04;100666.88;104637;1306;74773;-85
2022/05/14 06:59:29;;;;;;;4.30;3.10;;;;;;;22.61;47.99;100663.48;104593;1306;61275;-84
2022/05/14 07:01:54;;;;;;;5.90;3.30;;;;;;;22.61;48.06;100666.14;104379;1306;61179;-85
2022/05/14 07:07:05;;;;;;;4.10;3.30;;;;;;;22.62;48.19;100666.80;104468;1305;75026;-83
2022/05/14 07:09:31;;;;;;;5.40;3.20;;;;;;;22.63;48.06;100667.63;104371;1306;61381;-83
2022/05/14 07:12:08;;;;;;;4.60;3.20;;;;;;;22.63;48.13;100666.73;104693;1306;61265;-84
2022/05/14 07:14:33;;;;;;;4.20;3.20;;;;;;;22.64;48.14;100667.56;104622;1306;73881;-82
2022/05/14 07:17:02;;;;;;;4.80;2.80;;;;;;;22.64;48.07;100668.44;104697;1306;60032;-84
2022/05/14 07:19:28;;;;;;;4.80;3.30;;;;;;;22.64;48.07;100670.94;104362;1306;61339;-83
2022/05/14 07:21:57;;;;;;;4.60;3.10;;;;;;;22.63;48.12;100672.43;104515;1306;61320;-83
2022/05/14 07:24:26;;;;;;;6.20;3.40;;;;;;;22.64;48.12;100673.83;104491;1305;73683;-82
2022/05/14 07:26:54;;;;;;;4.60;3.30;;;;;;;22.63;48.19;100679.25;104628;1306;73798;-82
2022/05/14 07:29:21;;;;;;;4.40;3.10;;;;;;;22.64;48.01;100682.06;104376;1307;61179;-83
2022/05/14 07:31:48;;;;;;;6.00;3.20;;;;;;;22.63;48.24;100683.35;104629;1306;62527;-84
2022/05/14 07:34:13;;;;;;;4.80;3.30;;;;;;;22.64;48.17;100686.36;104622;1306;72865;-84
2022/05/14 07:36:44;;;;;;;5.10;3.00;;;;;;;22.64;48.14;100682.42;104566;1306;61810;-83
2022/05/14 07:39:23;;;;;;;4.50;3.20;;;;;;;22.65;48.13;100681.30;104885;1306;61192;-85
2022/05/14 07:41:56;;;;;;;4.70;3.20;;;;;;;22.65;48.11;100679.64;104697;1306;61635;-88
2022/05/14 07:44:24;;;;;;;4.80;3.10;;;;;;;22.65;47.98;100678.57;104549;1306;73891;-84
2022/05/14 07:46:55;;;;;;;4.00;3.30;;;;;;;22.65;48.10;100681.65;104818;1306;75585;-84
2022/05/14 07:49:24;;;;;;;4.20;3.10;;;;;;;22.65;48.19;100687.73;104665;1305;61155;-84
2022/05/14 07:51:53;;;;;;;4.50;3.10;;;;;;;22.65;48.16;100687.02;104624;1307;61955;-83
2022/05/14 07:54:20;;;;;;;5.50;3.20;;;;;;;22.65;48.04;100686.86;104467;1309;74009;-84
2022/05/14 07:56:55;;;;;;;4.50;2.90;;;;;;;22.65;48.11;100685.76;104642;1306;75761;-85
2022/05/14 07:59:21;;;;;;;4.70;3.30;;;;;;;22.66;48.05;100679.96;104578;1306;61304;-82
2022/05/14 08:01:57;;;;;;;4.40;3.40;;;;;;;22.66;48.04;100674.92;104655;1306;61596;-81
2022/05/14 08:04:30;;;;;;;4.80;3.20;;;;;;;22.66;47.98;100675.08;104555;1306;73726;-83
2022/05/14 08:06:59;;;;;;;4.40;3.10;;;;;;;22.66;48.07;100675.96;104644;1306;61308;-83
2022/05/14 08:09:27;;;;;;;5.20;3.50;;;;;;;22.66;48.01;100677.19;104521;1306;61742;-89
2022/05/14 08:11:58;;;;;;;4.80;3.20;;;;;;;22.66;48.13;100678.10;104859;1305;61294;-85
2022/05/14 08:14:25;;;;;;;4.30;3.00;;;;;;;22.66;48.10;100675.77;104636;1306;72862;-83
2022/05/14 08:16:51;;;;;;;4.70;3.30;;;;;;;22.66;48.10;100675.24;104712;1306;74212;-83
2022/05/14 08:19:17;;;;;;;4.40;3.20;;;;;;;22.66;48.15;100675.06;104676;1305;61441;-83
2022/05/14 08:24:38;;;;;;;4.90;3.20;;;;;;;22.66;48.07;100679.55;104736;1306;72765;-86
2022/05/14 08:27:19;;;;;;;4.20;3.20;;;;;;;22.66;48.02;100679.04;104597;1306;74821;-86
2022/05/14 08:29:48;;;;;;;5.00;3.30;;;;;;;22.67;48.07;100683.63;104559;1306;61384;-87
2022/05/14 08:32:18;;;;;;;4.90;3.50;;;;;;;22.67;47.97;100677.71;104565;1306;61233;-85
2022/05/14 08:34:45;;;;;;;4.10;3.00;;;;;;;22.66;47.91;100676.32;104444;1307;73810;-84
2022/05/14 08:37:18;;;;;;;3.80;3.00;;;;;;;22.66;48.04;100677.05;104617;1307;74934;-87
2022/05/14 08:39:46;;;;;;;5.80;3.10;;;;;;;22.66;48.03;100680.28;104537;1309;62037;-87
2022/05/14 08:42:12;;;;;;;4.40;3.20;;;;;;;22.66;47.99;100679.92;104537;1309;61743;-84
2022/05/14 08:44:42;;;;;;;5.40;3.40;;;;;;;22.65;48.08;100682.52;104566;1306;61263;-84
2022/05/14 08:47:10;;;;;;;;;;;;;;;22.66;48.11;100683.53;104534;1306;74890;-86
2022/05/14 08:49:44;;;;;;;5.10;3.20;;;;;;;22.63;48.13;100681.95;104576;1305;61264;-85
2022/05/14 08:52:14;;;;;;;4.10;2.90;;;;;;;22.64;48.02;100680.64;104467;1307;61544;-83
2022/05/14 08:54:40;;;;;;;4.40;3.10;;;;;;;22.64;48.03;100677.56;104542;1306;75044;-82
2022/05/14 08:57:23;;;;;;;5.00;3.10;;;;;;;22.64;48.03;100676.66;104555;1306;61394;-82
2022/05/14 08:59:52;;;;;;;4.20;3.00;;;;;;;22.64;47.96;100672.70;104846;1306;61656;-84
2022/05/14 09:02:33;;;;;;;4.50;2.80;;;;;;;22.64;48.09;100674.31;104826;1306;62352;-87
2022/05/14 09:05:04;;;;;;;4.50;3.00;;;;;;;22.65;48.03;100672.85;104575;1306;72698;-85
2022/05/14 09:07:33;;;;;;;4.50;3.20;;;;;;;22.65;47.97;100674.48;104821;1306;74773;-84
2022/05/14 09:09:59;;;;;;;4.60;3.00;;;;;;;22.65;48.07;100673.23;104732;1306;61267;-84
2022/05/14 09:12:33;;;;;;;4.40;3.00;;;;;;;22.64;48.02;100672.15;104723;1306;61857;-84
2022/05/14 09:15:06;;;;;;;5.20;2.90;;;;;;;22.65;48.05;100674.83;104728;1306;73808;-86
2022/05/14 09:17:35;;;;;;;4.20;3.10;;;;;;;22.65;48.07;100671.96;104705;1306;75649;-84
2022/05/14 09:20:04;;;;;;;4.10;3.00;;;;;;;22.65;47.87;100672.31;104727;1305;61150;-89
2022/05/14 09:22:49;;;;;;;4.10;2.70;;;;;;;22.65;47.97;100668.35;104627;1306;61192;-83
2022/05/14 09:25:29;;;;;;;5.10;2.90;;;;;;;22.65;47.89;100668.55;104719;1306;73809;-83
2022/05/14 09:28:03;;;;;;;4.70;3.10;;;;;;;22.65;47.93;100673.70;104658;1306;74888;-85
2022/05/14 09:30:49;;;;;;;5.50;3.50;;;;;;;22.66;47.77;100673.34;104748;1305;61416;-83
2022/05/14 09:33:38;;;;;;;4.70;2.90;;;;;;;22.65;47.99;100675.52;104607;1307;61153;-85
2022/05/14 09:36:07;;;;;;;4.00;2.80;;;;;;;22.65;47.78;100673.90;104747;1306;72792;-85
2022/05/14 09:38:33;;;;;;;4.20;2.90;;;;;;;22.66;47.88;100672.03;104484;1305;75687;-83
2022/05/14 09:41:18;;;;;;;4.60;2.90;;;;;;;22.66;47.82;100673.29;104595;1306;61330;-82
2022/05/14 09:43:47;;;;;;;4.20;3.00;;;;;;;22.66;47.83;100670.05;104532;1306;61186;-83
2022/05/14 09:46:32;;;;;;;4.20;2.90;;;;;;;22.67;47.82;100667.48;104636;1306;72927;-84
2022/05/14 09:49:03;;;;;;;4.20;2.90;;;;;;;22.67;47.75;100670.85;104694;1306;74916;-83
2022/05/14 09:51:36;;;;;;;4.70;2.80;;;;;;;22.67;47.77;100672.65;104736;1306;61485;-85
2022/05/14 09:54:29;;;;;;;4.70;3.00;;;;;;;22.67;47.68;100673.59;104740;1306;61573;-85
2022/05/14 09:57:26;;;;;;;4.10;2.90;;;;;;;22.66;47.80;100670.58;104771;1305;73851;-84
2022/05/14 10:00:28;;;;;;;4.10;3.00;;;;;;;22.66;47.73;100670.42;104619;1306;74919;-84
2022/05/14 10:03:20;;;;;;;5.60;3.00;;;;;;;22.66;47.79;100673.42;104215;1313;61305;-84
2022/05/14 10:05:53;;;;;;;3.90;3.00;;;;;;;22.66;47.61;100668.27;103938;1315;61446;-84
2022/05/14 10:08:44;;;;;;;4.50;3.00;;;;;;;22.66;47.70;100671.31;104170;1314;73394;-82
2022/05/14 10:11:28;;;;;;;4.80;3.20;;;;;;;22.66;47.65;100672.02;104271;1313;74614;-87
2022/05/14 10:14:27;;;;;;;4.20;2.90;;;;;;;22.67;47.71;100670.38;104246;1314;61134;-81
2022/05/14 10:17:19;;;;;;;5.70;3.20;;;;;;;22.66;47.63;100670.42;104341;1313;61271;-84
2022/05/14 10:20:09;;;;;;;4.50;2.90;;;;;;;22.66;47.50;100671.67;104315;1313;72838;-84
2022/05/14 10:29:43;;;;;;;4.30;3.00;;;;;;;22.65;47.65;100667.44;103214;1322;61411;-84
2022/05/14 10:32:18;;;;;;;4.20;3.10;;;;;;;22.65;47.50;100661.02;103160;1323;74019;-86
2022/05/14 10:35:17;;;;;;;4.10;2.80;;;;;;;22.65;47.52;100664.25;103296;1320;74823;-84
2022/05/14 10:37:59;;;;;;;6.90;2.90;;;;;;;22.64;47.45;100660.14;103435;1319;61192;-84
2022/05/14 10:40:35;;;;;;;4.00;2.70;;;;;;;22.64;47.48;100658.39;103739;1315;61721;-84
2022/05/14 10:43:48;;;;;;;4.00;3.00;;;;;;;22.64;47.48;100658.19;104237;1315;72841;-85
2022/05/14 10:46:18;;;;;;;4.30;2.70;;;;;;;22.63;47.61;100655.40;103335;1320;74833;-85
2022/05/14 10:49:00;;;;;;;3.80;2.80;;;;;;;22.64;47.55;100657.88;103428;1320;61208;-84
2022/05/14 10:51:37;;;;;;;4.50;3.00;;;;;;;22.64;47.50;100650.34;104031;1315;61241;-84
2022/05/14 10:54:03;;;;;;;3.70;2.80;;;;;;;22.64;47.56;100649.27;104242;1314;72890;-85
2022/05/14 10:56:35;;;;;;;4.40;2.60;;;;;;;22.64;47.52;100646.40;104084;1315;61200;-84
2022/05/14 10:59:12;;;;;;;4.50;2.90;;;;;;;22.64;47.49;100647.45;104203;1306;61265;-82
2022/05/14 11:01:53;;;;;;;4.00;3.00;;;;;;;22.64;47.52;100647.40;104465;1306;61262;-84
2022/05/14 11:04:33;;;;;;;3.90;2.70;;;;;;;22.64;47.55;100649.55;104773;1306;72968;-84
2022/05/14 11:07:15;;;;;;;5.90;3.00;;;;;;;22.65;47.48;100645.23;104601;1306;74747;-85
2022/05/14 11:09:47;;;;;;;4.50;2.90;;;;;;;22.65;47.47;100646.29;104494;1306;61130;-85
2022/05/14 11:12:33;;;;;;;4.50;3.00;;;;;;;22.65;47.37;100645.38;104539;1306;61221;-83
2022/05/14 11:15:01;;;;;;;4.30;2.70;;;;;;;22.66;47.39;100639.75;104802;1306;73754;-84
2022/05/14 11:17:38;;;;;;;4.10;2.80;;;;;;;22.66;47.38;100637.20;104707;1304;74576;-89
2022/05/14 11:20:11;;;;;;;4.20;2.70;;;;;;;22.67;47.26;100633.21;104440;1309;61455;-83
2022/05/14 11:22:47;;;;;;;3.90;2.70;;;;;;;22.67;47.38;100629.11;103813;1306;1107089;-83
2022/05/14 11:25:25;;;;;;;4.60;2.90;;;;;;;22.67;47.40;100629.99;104434;1306;73053;-83
2022/05/14 11:28:08;;;;;;;3.60;2.90;;;;;;;22.68;47.37;100627.55;104744;1306;74861;-84
2022/05/14 11:30:53;;;;;;;4.00;3.10;;;;;;;22.68;47.35;100630.60;104790;1305;61370;-84
2022/05/14 11:33:29;;;;;;;4.60;2.90;;;;;;;22.68;47.39;100625.24;104830;1306;61303;-86
2022/05/14 11:36:00;;;;;;;4.60;2.90;;;;;;;22.68;47.46;100625.19;104877;1306;73635;-87
2022/05/14 11:38:32;;;;;;;3.90;2.90;;;;;;;22.69;47.36;100624.60;104904;1306;75832;-83
2022/05/14 11:41:04;;;;;;;4.60;3.10;;;;;;;22.69;47.40;100622.81;104742;1306;62963;-82
2022/05/14 11:43:46;;;;;;;5.40;2.90;;;;;;;22.69;47.31;100620.64;104735;1306;61403;-84
2022/05/14 11:46:30;;;;;;;4.10;2.90;;;;;;;22.69;47.33;100618.52;104727;1306;73933;-85
2022/05/14 11:49:15;;;;;;;4.30;2.80;;;;;;;22.69;47.27;100615.30;104712;1306;74551;-83
2022/05/14 11:52:09;;;;;;;4.20;2.90;;;;;;;22.69;47.37;100619.41;104905;1306;61246;-84
2022/05/14 11:54:44;;;;;;;4.50;2.80;;;;;;;22.69;47.31;100618.17;104869;1306;61121;-86
2022/05/14 11:57:25;;;;;;;4.40;2.80;;;;;;;22.69;47.28;100619.59;104707;1307;73091;-85